sensor_id;sensor_type;location;lat;lon;timestamp;P1;durP1;ratioP1;P2;durP2;ratioP2
2175;SDS011;1094;49.902;10.876;2023-08-06T00:01:50;21.57;;;20.20;;
2175;SDS011;1094;49.902;10.876;2023-08-06T00:04:16;21.90;;;20.50;;
2175;SDS011;1094;49.902;10.876;2023-08-06T00:06:42;22.20;;;20.67;;
2175;SDS011;1094;49.902;10.876;2023-08-06T00:09:08;21.60;;;20.10;;
2175;SDS011;1094;49.902;10.876;2023-08-06T00:11:34;21.37;;;20.07;;
2175;SDS011;1094;49.902;10.876;2023-08-06T00:14:00;20.57;;;19.27;;
2175;SDS011;1094;49.902;10.876;2023-08-06T00:16:26;22.13;;;20.47;;
2175;SDS011;1094;49.902;10.876;2023-08-06T00:18:52;21.13;;;19.50;;
2175;SDS011;1094;49.902;10.876;2023-08-06T00:21:18;20.97;;;19.77;;
2175;SDS011;1094;49.902;10.876;2023-08-06T00:23:44;19.97;;;18.87;;
2175;SDS011;1094;49.902;10.876;2023-08-06T00:26:10;20.70;;;19.40;;
2175;SDS011;1094;49.902;10.876;2023-08-06T00:28:35;21.03;;;19.73;;
2175;SDS011;1094;49.902;10.876;2023-08-06T00:31:01;20.80;;;19.60;;
2175;SDS011;1094;49.902;10.876;2023-08-06T00:33:27;19.73;;;18.63;;
2175;SDS011;1094;49.902;10.876;2023-08-06T00:35:53;20.73;;;19.40;;
2175;SDS011;1094;49.902;10.876;2023-08-06T00:38:19;21.00;;;19.40;;
2175;SDS011;1094;49.902;10.876;2023-08-06T00:40:45;19.93;;;18.70;;
2175;SDS011;1094;49.902;10.876;2023-08-06T00:43:11;18.93;;;17.83;;
2175;SDS011;1094;49.902;10.876;2023-08-06T00:45:37;18.90;;;17.73;;
2175;SDS011;1094;49.902;10.876;2023-08-06T00:48:03;16.97;;;15.90;;
2175;SDS011;1094;49.902;10.876;2023-08-06T00:50:30;16.90;;;16.00;;
2175;SDS011;1094;49.902;10.876;2023-08-06T00:52:56;17.53;;;16.40;;
2175;SDS011;1094;49.902;10.876;2023-08-06T00:55:22;16.50;;;15.60;;
2175;SDS011;1094;49.902;10.876;2023-08-06T00:57:48;17.30;;;16.30;;
2175;SDS011;1094;49.902;10.876;2023-08-06T01:00:16;17.53;;;16.40;;
2175;SDS011;1094;49.902;10.876;2023-08-06T01:02:42;16.70;;;15.70;;
2175;SDS011;1094;49.902;10.876;2023-08-06T01:05:08;17.03;;;15.93;;
2175;SDS011;1094;49.902;10.876;2023-08-06T01:10:13;15.77;;;14.90;;
2175;SDS011;1094;49.902;10.876;2023-08-06T01:15:22;16.10;;;15.20;;
2175;SDS011;1094;49.902;10.876;2023-08-06T01:17:50;17.20;;;16.20;;
2175;SDS011;1094;49.902;10.876;2023-08-06T01:20:16;17.80;;;16.80;;
2175;SDS011;1094;49.902;10.876;2023-08-06T01:22:42;17.37;;;16.40;;
2175;SDS011;1094;49.902;10.876;2023-08-06T01:25:08;17.53;;;16.43;;
2175;SDS011;1094;49.902;10.876;2023-08-06T01:27:47;17.37;;;15.90;;
2175;SDS011;1094;49.902;10.876;2023-08-06T01:30:20;15.60;;;14.80;;
2175;SDS011;1094;49.902;10.876;2023-08-06T01:32:49;16.10;;;15.20;;
2175;SDS011;1094;49.902;10.876;2023-08-06T01:35:17;16.40;;;15.47;;
2175;SDS011;1094;49.902;10.876;2023-08-06T01:37:43;16.10;;;15.23;;
2175;SDS011;1094;49.902;10.876;2023-08-06T01:40:10;16.80;;;15.80;;
2175;SDS011;1094;49.902;10.876;2023-08-06T01:42:39;15.67;;;14.57;;
2175;SDS011;1094;49.902;10.876;2023-08-06T01:45:06;16.30;;;15.30;;
2175;SDS011;1094;49.902;10.876;2023-08-06T01:47:32;16.80;;;15.50;;
2175;SDS011;1094;49.902;10.876;2023-08-06T01:49:58;16.30;;;15.20;;
2175;SDS011;1094;49.902;10.876;2023-08-06T01:52:24;16.37;;;15.37;;
2175;SDS011;1094;49.902;10.876;2023-08-06T01:54:50;16.30;;;15.40;;
2175;SDS011;1094;49.902;10.876;2023-08-06T01:57:16;16.67;;;15.57;;
2175;SDS011;1094;49.902;10.876;2023-08-06T01:59:42;15.80;;;14.80;;
2175;SDS011;1094;49.902;10.876;2023-08-06T02:02:08;15.90;;;14.90;;
2175;SDS011;1094;49.902;10.876;2023-08-06T02:04:34;16.03;;;14.93;;
2175;SDS011;1094;49.902;10.876;2023-08-06T02:07:00;17.10;;;15.90;;
2175;SDS011;1094;49.902;10.876;2023-08-06T02:09:25;17.13;;;16.13;;
2175;SDS011;1094;49.902;10.876;2023-08-06T02:11:51;16.23;;;15.20;;
2175;SDS011;1094;49.902;10.876;2023-08-06T02:14:17;17.07;;;15.87;;
2175;SDS011;1094;49.902;10.876;2023-08-06T02:16:43;15.93;;;15.03;;
2175;SDS011;1094;49.902;10.876;2023-08-06T02:19:09;16.23;;;15.23;;
2175;SDS011;1094;49.902;10.876;2023-08-06T02:21:35;16.57;;;15.67;;
2175;SDS011;1094;49.902;10.876;2023-08-06T02:24:01;16.40;;;15.37;;
2175;SDS011;1094;49.902;10.876;2023-08-06T02:26:27;16.63;;;15.63;;
2175;SDS011;1094;49.902;10.876;2023-08-06T02:28:53;17.60;;;16.60;;
2175;SDS011;1094;49.902;10.876;2023-08-06T02:31:19;16.87;;;15.87;;
2175;SDS011;1094;49.902;10.876;2023-08-06T02:33:45;16.30;;;15.10;;
2175;SDS011;1094;49.902;10.876;2023-08-06T02:36:11;15.50;;;14.60;;
2175;SDS011;1094;49.902;10.876;2023-08-06T02:38:37;15.23;;;14.30;;
2175;SDS011;1094;49.902;10.876;2023-08-06T02:41:03;16.47;;;15.37;;
2175;SDS011;1094;49.902;10.876;2023-08-06T02:43:29;16.13;;;14.80;;
2175;SDS011;1094;49.902;10.876;2023-08-06T02:45:58;16.10;;;15.07;;
2175;SDS011;1094;49.902;10.876;2023-08-06T02:48:25;15.33;;;14.43;;
2175;SDS011;1094;49.902;10.876;2023-08-06T02:50:51;16.47;;;15.30;;
2175;SDS011;1094;49.902;10.876;2023-08-06T02:53:17;16.27;;;15.30;;
2175;SDS011;1094;49.902;10.876;2023-08-06T02:55:46;15.10;;;14.10;;
2175;SDS011;1094;49.902;10.876;2023-08-06T02:58:15;14.60;;;13.80;;
2175;SDS011;1094;49.902;10.876;2023-08-06T03:00:42;16.30;;;14.90;;
2175;SDS011;1094;49.902;10.876;2023-08-06T03:03:08;15.00;;;13.97;;
2175;SDS011;1094;49.902;10.876;2023-08-06T03:05:34;15.53;;;14.53;;
2175;SDS011;1094;49.902;10.876;2023-08-06T03:08:00;15.73;;;14.67;;
2175;SDS011;1094;49.902;10.876;2023-08-06T03:10:26;15.60;;;14.63;;
2175;SDS011;1094;49.902;10.876;2023-08-06T03:12:52;16.50;;;15.40;;
2175;SDS011;1094;49.902;10.876;2023-08-06T03:15:18;14.93;;;13.73;;
2175;SDS011;1094;49.902;10.876;2023-08-06T03:17:44;14.20;;;13.30;;
2175;SDS011;1094;49.902;10.876;2023-08-06T03:20:10;16.00;;;14.90;;
2175;SDS011;1094;49.902;10.876;2023-08-06T03:22:36;15.90;;;14.77;;
2175;SDS011;1094;49.902;10.876;2023-08-06T03:25:02;15.57;;;14.40;;
2175;SDS011;1094;49.902;10.876;2023-08-06T03:27:28;15.67;;;14.57;;
2175;SDS011;1094;49.902;10.876;2023-08-06T03:29:54;16.30;;;15.20;;
2175;SDS011;1094;49.902;10.876;2023-08-06T03:32:20;14.53;;;13.60;;
2175;SDS011;1094;49.902;10.876;2023-08-06T03:34:46;15.00;;;13.97;;
2175;SDS011;1094;49.902;10.876;2023-08-06T03:37:12;13.83;;;12.97;;
2175;SDS011;1094;49.902;10.876;2023-08-06T03:39:38;13.97;;;13.00;;
2175;SDS011;1094;49.902;10.876;2023-08-06T03:42:04;13.27;;;12.47;;
2175;SDS011;1094;49.902;10.876;2023-08-06T03:44:30;14.50;;;13.40;;
2175;SDS011;1094;49.902;10.876;2023-08-06T03:46:56;12.90;;;12.00;;
2175;SDS011;1094;49.902;10.876;2023-08-06T03:49:22;13.30;;;12.40;;
2175;SDS011;1094;49.902;10.876;2023-08-06T03:51:48;13.87;;;12.87;;
2175;SDS011;1094;49.902;10.876;2023-08-06T03:54:14;13.90;;;13.00;;
2175;SDS011;1094;49.902;10.876;2023-08-06T03:56:40;14.10;;;13.20;;
2175;SDS011;1094;49.902;10.876;2023-08-06T03:59:06;14.40;;;13.47;;
2175;SDS011;1094;49.902;10.876;2023-08-06T04:01:32;14.73;;;13.70;;
2175;SDS011;1094;49.902;10.876;2023-08-06T04:03:58;13.73;;;12.93;;
2175;SDS011;1094;49.902;10.876;2023-08-06T04:06:24;13.90;;;13.10;;
2175;SDS011;1094;49.902;10.876;2023-08-06T04:08:50;14.97;;;13.93;;
2175;SDS011;1094;49.902;10.876;2023-08-06T04:11:16;16.17;;;14.93;;
2175;SDS011;1094;49.902;10.876;2023-08-06T04:13:42;14.17;;;13.27;;
2175;SDS011;1094;49.902;10.876;2023-08-06T04:16:09;15.37;;;13.93;;
2175;SDS011;1094;49.902;10.876;2023-08-06T04:18:35;14.80;;;13.80;;
2175;SDS011;1094;49.902;10.876;2023-08-06T04:21:01;14.63;;;13.73;;
2175;SDS011;1094;49.902;10.876;2023-08-06T04:23:27;14.73;;;13.83;;
2175;SDS011;1094;49.902;10.876;2023-08-06T04:25:56;13.80;;;13.00;;
2175;SDS011;1094;49.902;10.876;2023-08-06T04:28:22;14.03;;;13.23;;
2175;SDS011;1094;49.902;10.876;2023-08-06T04:30:48;14.60;;;13.67;;
2175;SDS011;1094;49.902;10.876;2023-08-06T04:33:14;14.00;;;13.20;;
2175;SDS011;1094;49.902;10.876;2023-08-06T04:35:40;13.73;;;12.93;;
2175;SDS011;1094;49.902;10.876;2023-08-06T04:38:06;14.73;;;13.83;;
2175;SDS011;1094;49.902;10.876;2023-08-06T04:40:35;14.03;;;13.23;;
2175;SDS011;1094;49.902;10.876;2023-08-06T04:43:01;13.90;;;13.07;;
2175;SDS011;1094;49.902;10.876;2023-08-06T04:45:27;14.27;;;13.37;;
2175;SDS011;1094;49.902;10.876;2023-08-06T04:47:53;14.07;;;13.20;;
2175;SDS011;1094;49.902;10.876;2023-08-06T04:50:19;13.77;;;13.07;;
2175;SDS011;1094;49.902;10.876;2023-08-06T04:52:45;14.57;;;13.40;;
2175;SDS011;1094;49.902;10.876;2023-08-06T04:55:11;13.60;;;12.90;;
2175;SDS011;1094;49.902;10.876;2023-08-06T04:57:37;14.73;;;13.73;;
2175;SDS011;1094;49.902;10.876;2023-08-06T05:00:03;13.50;;;12.70;;
2175;SDS011;1094;49.902;10.876;2023-08-06T05:02:30;13.43;;;12.53;;
2175;SDS011;1094;49.902;10.876;2023-08-06T05:04:57;15.20;;;13.80;;
2175;SDS011;1094;49.902;10.876;2023-08-06T05:07:23;14.23;;;13.43;;
2175;SDS011;1094;49.902;10.876;2023-08-06T05:09:49;14.60;;;13.80;;
2175;SDS011;1094;49.902;10.876;2023-08-06T05:12:15;14.40;;;13.60;;
2175;SDS011;1094;49.902;10.876;2023-08-06T05:14:41;13.43;;;12.70;;
2175;SDS011;1094;49.902;10.876;2023-08-06T05:17:07;14.37;;;13.40;;
2175;SDS011;1094;49.902;10.876;2023-08-06T05:19:33;13.10;;;12.30;;
2175;SDS011;1094;49.902;10.876;2023-08-06T05:21:59;14.87;;;13.80;;
2175;SDS011;1094;49.902;10.876;2023-08-06T05:24:26;13.53;;;12.83;;
2175;SDS011;1094;49.902;10.876;2023-08-06T05:26:52;14.50;;;13.50;;
2175;SDS011;1094;49.902;10.876;2023-08-06T05:29:18;15.63;;;14.63;;
2175;SDS011;1094;49.902;10.876;2023-08-06T05:31:44;15.20;;;14.50;;
2175;SDS011;1094;49.902;10.876;2023-08-06T05:34:10;15.23;;;14.43;;
2175;SDS011;1094;49.902;10.876;2023-08-06T05:36:36;16.43;;;15.37;;
2175;SDS011;1094;49.902;10.876;2023-08-06T05:39:02;16.43;;;15.53;;
2175;SDS011;1094;49.902;10.876;2023-08-06T05:41:28;16.90;;;15.90;;
2175;SDS011;1094;49.902;10.876;2023-08-06T05:43:54;17.90;;;16.63;;
2175;SDS011;1094;49.902;10.876;2023-08-06T05:46:20;16.53;;;15.60;;
2175;SDS011;1094;49.902;10.876;2023-08-06T05:48:46;15.57;;;14.77;;
2175;SDS011;1094;49.902;10.876;2023-08-06T05:51:12;16.40;;;15.30;;
2175;SDS011;1094;49.902;10.876;2023-08-06T05:53:38;17.27;;;16.20;;
2175;SDS011;1094;49.902;10.876;2023-08-06T05:56:04;16.73;;;15.73;;
2175;SDS011;1094;49.902;10.876;2023-08-06T05:58:30;16.93;;;15.93;;
2175;SDS011;1094;49.902;10.876;2023-08-06T06:00:56;18.00;;;16.70;;
2175;SDS011;1094;49.902;10.876;2023-08-06T06:03:22;17.77;;;16.77;;
2175;SDS011;1094;49.902;10.876;2023-08-06T06:05:48;17.37;;;16.47;;
2175;SDS011;1094;49.902;10.876;2023-08-06T06:08:14;18.50;;;17.50;;
2175;SDS011;1094;49.902;10.876;2023-08-06T06:10:40;17.77;;;16.77;;
2175;SDS011;1094;49.902;10.876;2023-08-06T06:13:06;18.47;;;17.37;;
2175;SDS011;1094;49.902;10.876;2023-08-06T06:15:32;18.27;;;17.37;;
2175;SDS011;1094;49.902;10.876;2023-08-06T06:17:58;18.40;;;17.40;;
2175;SDS011;1094;49.902;10.876;2023-08-06T06:20:24;18.60;;;17.57;;
2175;SDS011;1094;49.902;10.876;2023-08-06T06:22:50;19.37;;;18.27;;
2175;SDS011;1094;49.902;10.876;2023-08-06T06:25:16;19.83;;;18.73;;
2175;SDS011;1094;49.902;10.876;2023-08-06T06:27:42;20.27;;;19.17;;
2175;SDS011;1094;49.902;10.876;2023-08-06T06:30:08;20.63;;;19.43;;
2175;SDS011;1094;49.902;10.876;2023-08-06T06:32:34;20.80;;;19.67;;
2175;SDS011;1094;49.902;10.876;2023-08-06T06:35:00;20.97;;;19.77;;
2175;SDS011;1094;49.902;10.876;2023-08-06T06:37:26;20.40;;;19.10;;
2175;SDS011;1094;49.902;10.876;2023-08-06T06:39:52;20.60;;;19.50;;
2175;SDS011;1094;49.902;10.876;2023-08-06T06:42:18;21.30;;;19.93;;
2175;SDS011;1094;49.902;10.876;2023-08-06T06:44:44;20.90;;;19.60;;
2175;SDS011;1094;49.902;10.876;2023-08-06T06:47:10;20.00;;;18.90;;
2175;SDS011;1094;49.902;10.876;2023-08-06T06:49:35;20.60;;;19.50;;
2175;SDS011;1094;49.902;10.876;2023-08-06T06:52:01;21.33;;;20.13;;
2175;SDS011;1094;49.902;10.876;2023-08-06T06:54:27;20.50;;;19.40;;
2175;SDS011;1094;49.902;10.876;2023-08-06T06:56:53;21.30;;;20.07;;
2175;SDS011;1094;49.902;10.876;2023-08-06T06:59:19;21.87;;;20.57;;
2175;SDS011;1094;49.902;10.876;2023-08-06T07:01:45;21.33;;;19.93;;
2175;SDS011;1094;49.902;10.876;2023-08-06T07:04:11;22.00;;;20.60;;
2175;SDS011;1094;49.902;10.876;2023-08-06T07:06:37;21.27;;;19.80;;
2175;SDS011;1094;49.902;10.876;2023-08-06T07:09:03;21.47;;;20.17;;
2175;SDS011;1094;49.902;10.876;2023-08-06T07:11:29;21.23;;;20.13;;
2175;SDS011;1094;49.902;10.876;2023-08-06T07:13:56;21.80;;;20.40;;
2175;SDS011;1094;49.902;10.876;2023-08-06T07:16:23;20.57;;;19.50;;
2175;SDS011;1094;49.902;10.876;2023-08-06T07:18:50;21.37;;;19.87;;
2175;SDS011;1094;49.902;10.876;2023-08-06T07:21:17;20.90;;;19.70;;
2175;SDS011;1094;49.902;10.876;2023-08-06T07:23:43;21.07;;;19.87;;
2175;SDS011;1094;49.902;10.876;2023-08-06T07:26:10;21.27;;;19.87;;
2175;SDS011;1094;49.902;10.876;2023-08-06T07:28:36;21.10;;;19.97;;
2175;SDS011;1094;49.902;10.876;2023-08-06T07:31:02;21.03;;;19.83;;
2175;SDS011;1094;49.902;10.876;2023-08-06T07:33:28;20.17;;;18.77;;
2175;SDS011;1094;49.902;10.876;2023-08-06T07:35:54;21.10;;;19.90;;
2175;SDS011;1094;49.902;10.876;2023-08-06T07:38:20;20.33;;;19.23;;
2175;SDS011;1094;49.902;10.876;2023-08-06T07:40:46;21.37;;;20.13;;
2175;SDS011;1094;49.902;10.876;2023-08-06T07:43:12;21.03;;;19.60;;
2175;SDS011;1094;49.902;10.876;2023-08-06T07:45:38;20.57;;;19.47;;
2175;SDS011;1094;49.902;10.876;2023-08-06T07:48:04;19.90;;;18.90;;
2175;SDS011;1094;49.902;10.876;2023-08-06T07:50:30;20.77;;;19.67;;
2175;SDS011;1094;49.902;10.876;2023-08-06T07:52:56;20.07;;;18.90;;
2175;SDS011;1094;49.902;10.876;2023-08-06T07:55:22;20.43;;;19.20;;
2175;SDS011;1094;49.902;10.876;2023-08-06T07:57:48;20.87;;;19.43;;
2175;SDS011;1094;49.902;10.876;2023-08-06T08:00:14;20.50;;;19.30;;
2175;SDS011;1094;49.902;10.876;2023-08-06T08:02:40;20.10;;;19.00;;
2175;SDS011;1094;49.902;10.876;2023-08-06T08:05:06;20.27;;;19.17;;
2175;SDS011;1094;49.902;10.876;2023-08-06T08:07:33;20.90;;;19.70;;
2175;SDS011;1094;49.902;10.876;2023-08-06T08:09:59;20.23;;;19.13;;
2175;SDS011;1094;49.902;10.876;2023-08-06T08:12:25;21.47;;;19.97;;
2175;SDS011;1094;49.902;10.876;2023-08-06T08:14:51;21.73;;;20.40;;
2175;SDS011;1094;49.902;10.876;2023-08-06T08:17:17;21.27;;;20.07;;
2175;SDS011;1094;49.902;10.876;2023-08-06T08:19:43;20.23;;;19.13;;
2175;SDS011;1094;49.902;10.876;2023-08-06T08:22:09;21.73;;;20.43;;
2175;SDS011;1094;49.902;10.876;2023-08-06T08:24:35;20.93;;;19.73;;
2175;SDS011;1094;49.902;10.876;2023-08-06T08:27:01;21.10;;;19.90;;
2175;SDS011;1094;49.902;10.876;2023-08-06T08:29:27;21.40;;;20.20;;
2175;SDS011;1094;49.902;10.876;2023-08-06T08:31:53;21.10;;;19.80;;
2175;SDS011;1094;49.902;10.876;2023-08-06T08:34:19;19.27;;;18.27;;
2175;SDS011;1094;49.902;10.876;2023-08-06T08:36:45;20.10;;;18.70;;
2175;SDS011;1094;49.902;10.876;2023-08-06T08:39:12;20.17;;;18.60;;
2175;SDS011;1094;49.902;10.876;2023-08-06T08:41:38;19.20;;;18.00;;
2175;SDS011;1094;49.902;10.876;2023-08-06T08:44:08;18.83;;;17.83;;
2175;SDS011;1094;49.902;10.876;2023-08-06T08:46:37;18.90;;;17.90;;
2175;SDS011;1094;49.902;10.876;2023-08-06T08:49:03;18.77;;;17.87;;
2175;SDS011;1094;49.902;10.876;2023-08-06T08:51:30;19.10;;;18.07;;
2175;SDS011;1094;49.902;10.876;2023-08-06T08:53:56;18.30;;;17.40;;
2175;SDS011;1094;49.902;10.876;2023-08-06T08:56:22;19.40;;;18.30;;
2175;SDS011;1094;49.902;10.876;2023-08-06T08:58:48;18.80;;;17.90;;
2175;SDS011;1094;49.902;10.876;2023-08-06T09:01:15;19.10;;;17.90;;
2175;SDS011;1094;49.902;10.876;2023-08-06T09:03:41;18.83;;;17.93;;
2175;SDS011;1094;49.902;10.876;2023-08-06T09:06:07;18.80;;;17.80;;
2175;SDS011;1094;49.902;10.876;2023-08-06T09:08:37;19.00;;;17.90;;
2175;SDS011;1094;49.902;10.876;2023-08-06T09:11:05;18.63;;;17.63;;
2175;SDS011;1094;49.902;10.876;2023-08-06T09:13:35;18.47;;;17.47;;
2175;SDS011;1094;49.902;10.876;2023-08-06T09:16:03;18.70;;;17.80;;
2175;SDS011;1094;49.902;10.876;2023-08-06T09:18:29;18.80;;;17.73;;
2175;SDS011;1094;49.902;10.876;2023-08-06T09:20:56;18.30;;;17.40;;
2175;SDS011;1094;49.902;10.876;2023-08-06T09:23:27;18.47;;;17.47;;
2175;SDS011;1094;49.902;10.876;2023-08-06T09:25:54;18.60;;;17.70;;
2175;SDS011;1094;49.902;10.876;2023-08-06T09:28:20;18.17;;;17.27;;
2175;SDS011;1094;49.902;10.876;2023-08-06T09:30:47;18.00;;;17.10;;
2175;SDS011;1094;49.902;10.876;2023-08-06T09:33:17;18.30;;;17.40;;
2175;SDS011;1094;49.902;10.876;2023-08-06T09:35:45;18.17;;;17.27;;
2175;SDS011;1094;49.902;10.876;2023-08-06T09:38:11;18.00;;;17.10;;
2175;SDS011;1094;49.902;10.876;2023-08-06T09:40:37;18.57;;;17.57;;
2175;SDS011;1094;49.902;10.876;2023-08-06T09:43:03;18.00;;;17.10;;
2175;SDS011;1094;49.902;10.876;2023-08-06T09:45:34;18.90;;;17.70;;
2175;SDS011;1094;49.902;10.876;2023-08-06T09:48:00;18.37;;;17.37;;
2175;SDS011;1094;49.902;10.876;2023-08-06T09:50:29;18.57;;;17.57;;
2175;SDS011;1094;49.902;10.876;2023-08-06T09:52:56;18.77;;;17.80;;
2175;SDS011;1094;49.902;10.876;2023-08-06T09:55:22;18.90;;;17.90;;
2175;SDS011;1094;49.902;10.876;2023-08-06T09:57:49;18.33;;;17.33;;
2175;SDS011;1094;49.902;10.876;2023-08-06T10:00:16;17.90;;;17.00;;
2175;SDS011;1094;49.902;10.876;2023-08-06T10:02:43;18.00;;;17.10;;
2175;SDS011;1094;49.902;10.876;2023-08-06T10:05:09;18.23;;;17.33;;
2175;SDS011;1094;49.902;10.876;2023-08-06T10:07:35;18.40;;;17.50;;
2175;SDS011;1094;49.902;10.876;2023-08-06T10:10:02;19.00;;;18.10;;
2175;SDS011;1094;49.902;10.876;2023-08-06T10:12:28;19.73;;;18.70;;
2175;SDS011;1094;49.902;10.876;2023-08-06T10:14:55;19.70;;;18.60;;
2175;SDS011;1094;49.902;10.876;2023-08-06T10:17:23;19.17;;;18.13;;
2175;SDS011;1094;49.902;10.876;2023-08-06T10:19:49;19.57;;;18.50;;
2175;SDS011;1094;49.902;10.876;2023-08-06T10:22:16;18.60;;;17.70;;
2175;SDS011;1094;49.902;10.876;2023-08-06T10:24:50;18.87;;;17.77;;
2175;SDS011;1094;49.902;10.876;2023-08-06T10:27:20;18.50;;;17.47;;
2175;SDS011;1094;49.902;10.876;2023-08-06T10:29:46;18.63;;;17.73;;
2175;SDS011;1094;49.902;10.876;2023-08-06T10:32:12;18.70;;;17.70;;
2175;SDS011;1094;49.902;10.876;2023-08-06T10:34:54;18.57;;;17.67;;
2175;SDS011;1094;49.902;10.876;2023-08-06T10:37:24;18.57;;;17.57;;
2175;SDS011;1094;49.902;10.876;2023-08-06T10:39:50;17.70;;;16.80;;
2175;SDS011;1094;49.902;10.876;2023-08-06T10:42:20;18.43;;;17.53;;
2175;SDS011;1094;49.902;10.876;2023-08-06T10:47:33;19.20;;;18.20;;
2175;SDS011;1094;49.902;10.876;2023-08-06T10:50:04;19.50;;;18.47;;
2175;SDS011;1094;49.902;10.876;2023-08-06T10:52:30;19.57;;;18.30;;
2175;SDS011;1094;49.902;10.876;2023-08-06T10:54:56;19.30;;;18.30;;
2175;SDS011;1094;49.902;10.876;2023-08-06T10:57:22;19.60;;;18.60;;
2175;SDS011;1094;49.902;10.876;2023-08-06T10:59:49;18.33;;;17.40;;
2175;SDS011;1094;49.902;10.876;2023-08-06T11:02:16;18.40;;;17.50;;
2175;SDS011;1094;49.902;10.876;2023-08-06T11:04:42;19.10;;;18.20;;
2175;SDS011;1094;49.902;10.876;2023-08-06T11:07:08;18.83;;;17.93;;
2175;SDS011;1094;49.902;10.876;2023-08-06T11:09:34;18.47;;;17.57;;
2175;SDS011;1094;49.902;10.876;2023-08-06T11:12:00;19.33;;;18.23;;
2175;SDS011;1094;49.902;10.876;2023-08-06T11:14:26;19.10;;;18.00;;
2175;SDS011;1094;49.902;10.876;2023-08-06T11:16:52;18.37;;;17.47;;
2175;SDS011;1094;49.902;10.876;2023-08-06T11:19:19;18.20;;;17.30;;
2175;SDS011;1094;49.902;10.876;2023-08-06T11:21:45;18.07;;;17.17;;
2175;SDS011;1094;49.902;10.876;2023-08-06T11:24:12;17.70;;;16.90;;
2175;SDS011;1094;49.902;10.876;2023-08-06T11:26:38;17.90;;;17.00;;
2175;SDS011;1094;49.902;10.876;2023-08-06T11:29:05;18.17;;;17.27;;
2175;SDS011;1094;49.902;10.876;2023-08-06T11:31:31;17.63;;;16.83;;
2175;SDS011;1094;49.902;10.876;2023-08-06T11:33:57;18.40;;;17.50;;
2175;SDS011;1094;49.902;10.876;2023-08-06T11:36:30;18.53;;;17.53;;
2175;SDS011;1094;49.902;10.876;2023-08-06T11:38:56;19.43;;;18.43;;
2175;SDS011;1094;49.902;10.876;2023-08-06T11:41:22;20.47;;;19.40;;
2175;SDS011;1094;49.902;10.876;2023-08-06T11:43:48;19.30;;;18.40;;
2175;SDS011;1094;49.902;10.876;2023-08-06T11:46:14;19.10;;;18.10;;
2175;SDS011;1094;49.902;10.876;2023-08-06T11:48:54;18.70;;;17.70;;
2175;SDS011;1094;49.902;10.876;2023-08-06T11:51:26;19.20;;;18.20;;
2175;SDS011;1094;49.902;10.876;2023-08-06T11:53:56;18.77;;;17.87;;
2175;SDS011;1094;49.902;10.876;2023-08-06T11:56:22;18.30;;;17.40;;
2175;SDS011;1094;49.902;10.876;2023-08-06T11:58:48;18.20;;;17.30;;
2175;SDS011;1094;49.902;10.876;2023-08-06T12:01:14;18.93;;;17.93;;
2175;SDS011;1094;49.902;10.876;2023-08-06T12:03:40;18.63;;;17.73;;
2175;SDS011;1094;49.902;10.876;2023-08-06T12:06:06;18.30;;;17.40;;
2175;SDS011;1094;49.902;10.876;2023-08-06T12:08:32;18.47;;;17.47;;
2175;SDS011;1094;49.902;10.876;2023-08-06T12:10:58;18.40;;;17.50;;
2175;SDS011;1094;49.902;10.876;2023-08-06T12:13:24;18.37;;;17.47;;
2175;SDS011;1094;49.902;10.876;2023-08-06T12:15:50;18.70;;;17.80;;
2175;SDS011;1094;49.902;10.876;2023-08-06T12:18:18;19.20;;;18.20;;
2175;SDS011;1094;49.902;10.876;2023-08-06T12:20:44;18.50;;;17.53;;
2175;SDS011;1094;49.902;10.876;2023-08-06T12:23:10;19.10;;;18.00;;
2175;SDS011;1094;49.902;10.876;2023-08-06T12:25:40;18.50;;;17.60;;
2175;SDS011;1094;49.902;10.876;2023-08-06T12:28:06;18.60;;;17.70;;
2175;SDS011;1094;49.902;10.876;2023-08-06T12:30:32;18.87;;;17.97;;
2175;SDS011;1094;49.902;10.876;2023-08-06T12:32:58;19.37;;;18.37;;
2175;SDS011;1094;49.902;10.876;2023-08-06T12:35:24;18.43;;;17.43;;
2175;SDS011;1094;49.902;10.876;2023-08-06T12:37:50;18.00;;;17.10;;
2175;SDS011;1094;49.902;10.876;2023-08-06T12:40:19;18.30;;;17.40;;
2175;SDS011;1094;49.902;10.876;2023-08-06T12:42:45;18.40;;;17.50;;
2175;SDS011;1094;49.902;10.876;2023-08-06T12:45:11;17.60;;;16.70;;
2175;SDS011;1094;49.902;10.876;2023-08-06T12:47:37;18.37;;;17.47;;
2175;SDS011;1094;49.902;10.876;2023-08-06T12:50:03;18.27;;;17.37;;
2175;SDS011;1094;49.902;10.876;2023-08-06T12:52:29;18.10;;;17.20;;
2175;SDS011;1094;49.902;10.876;2023-08-06T12:54:55;17.80;;;16.90;;
2175;SDS011;1094;49.902;10.876;2023-08-06T12:57:21;17.87;;;16.97;;
2175;SDS011;1094;49.902;10.876;2023-08-06T12:59:47;18.03;;;17.03;;
2175;SDS011;1094;49.902;10.876;2023-08-06T13:02:13;17.70;;;16.80;;
2175;SDS011;1094;49.902;10.876;2023-08-06T13:04:39;17.43;;;16.63;;
2175;SDS011;1094;49.902;10.876;2023-08-06T13:07:05;18.53;;;17.53;;
2175;SDS011;1094;49.902;10.876;2023-08-06T13:09:31;18.27;;;17.37;;
2175;SDS011;1094;49.902;10.876;2023-08-06T13:11:57;18.13;;;17.23;;
2175;SDS011;1094;49.902;10.876;2023-08-06T13:14:24;18.30;;;17.40;;
2175;SDS011;1094;49.902;10.876;2023-08-06T13:16:50;17.83;;;17.03;;
2175;SDS011;1094;49.902;10.876;2023-08-06T13:19:16;18.00;;;17.10;;
2175;SDS011;1094;49.902;10.876;2023-08-06T13:24:11;18.57;;;17.53;;
2175;SDS011;1094;49.902;10.876;2023-08-06T13:26:38;18.33;;;17.43;;
2175;SDS011;1094;49.902;10.876;2023-08-06T13:29:04;18.63;;;17.63;;
2175;SDS011;1094;49.902;10.876;2023-08-06T13:31:32;18.87;;;17.87;;
2175;SDS011;1094;49.902;10.876;2023-08-06T13:33:58;19.13;;;18.13;;
2175;SDS011;1094;49.902;10.876;2023-08-06T13:36:27;18.93;;;18.03;;
2175;SDS011;1094;49.902;10.876;2023-08-06T13:38:53;18.07;;;17.17;;
2175;SDS011;1094;49.902;10.876;2023-08-06T13:41:19;18.87;;;17.87;;
2175;SDS011;1094;49.902;10.876;2023-08-06T13:43:45;20.00;;;18.87;;
2175;SDS011;1094;49.902;10.876;2023-08-06T13:46:11;19.63;;;18.33;;
2175;SDS011;1094;49.902;10.876;2023-08-06T13:48:43;19.07;;;18.07;;
2175;SDS011;1094;49.902;10.876;2023-08-06T13:51:10;19.63;;;18.60;;
2175;SDS011;1094;49.902;10.876;2023-08-06T13:53:36;19.53;;;18.53;;
2175;SDS011;1094;49.902;10.876;2023-08-06T13:56:02;18.93;;;18.03;;
2175;SDS011;1094;49.902;10.876;2023-08-06T13:58:28;19.33;;;18.33;;
2175;SDS011;1094;49.902;10.876;2023-08-06T14:00:54;19.20;;;18.30;;
2175;SDS011;1094;49.902;10.876;2023-08-06T14:03:20;18.90;;;18.00;;
2175;SDS011;1094;49.902;10.876;2023-08-06T14:05:46;19.03;;;18.13;;
2175;SDS011;1094;49.902;10.876;2023-08-06T14:08:13;18.83;;;17.93;;
2175;SDS011;1094;49.902;10.876;2023-08-06T14:10:39;19.37;;;18.47;;
2175;SDS011;1094;49.902;10.876;2023-08-06T14:13:05;19.17;;;18.07;;
2175;SDS011;1094;49.902;10.876;2023-08-06T14:15:31;19.00;;;18.10;;
2175;SDS011;1094;49.902;10.876;2023-08-06T14:17:58;18.67;;;17.77;;
2175;SDS011;1094;49.902;10.876;2023-08-06T14:20:24;18.97;;;17.97;;
2175;SDS011;1094;49.902;10.876;2023-08-06T14:22:50;18.70;;;17.80;;
2175;SDS011;1094;49.902;10.876;2023-08-06T14:25:16;18.67;;;17.77;;
2175;SDS011;1094;49.902;10.876;2023-08-06T14:27:42;19.00;;;18.10;;
2175;SDS011;1094;49.902;10.876;2023-08-06T14:30:08;19.40;;;18.40;;
2175;SDS011;1094;49.902;10.876;2023-08-06T14:32:34;19.03;;;18.13;;
2175;SDS011;1094;49.902;10.876;2023-08-06T14:35:00;20.03;;;18.93;;
2175;SDS011;1094;49.902;10.876;2023-08-06T14:37:26;19.83;;;18.80;;
2175;SDS011;1094;49.902;10.876;2023-08-06T14:39:51;19.43;;;18.43;;